Acacia Lake, Texas
Current Conditions -  °F | °C
As of 3:53 PM on Monday 24 Nov 2014 (Local Time) from KBRO Reporting Station
Clear Clear  
Wind Chill: 19°   Ceiling: Unl
Heat Index: 19°   Visibility: 10mi
Dew Point:   Wind: 14mph
Humidity: 50%   Direction: 10°N
Pressure: 30.01"   Gusts: 20mph
Location:  26.0002°N, 97.5729°W
Report Text: KBRO 242153Z 01012G17KT 10SM CLR 19/08 A3001 RMK AO2 SLP160 T01890083
Loading
Personal Weather Stations






























Interactive Weather Map New forecast layout! Learn more

10-Day Weather Forecast

Advertisements
Track Severe Weather on mobile